createdAt,value
2018-01-28T00:00:13.249Z,1015.61
2018-01-28T00:01:13.261Z,1015.67
2018-01-28T00:02:13.273Z,1015.64
2018-01-28T00:03:13.276Z,1015.63
2018-01-28T00:04:13.290Z,1015.6
2018-01-28T00:05:13.302Z,1015.61
2018-01-28T00:06:13.317Z,1015.63
2018-01-28T00:07:13.337Z,1015.57
2018-01-28T00:08:13.339Z,1015.52
2018-01-28T00:09:13.363Z,1015.52
2018-01-28T00:10:13.376Z,1015.52
2018-01-28T00:11:13.378Z,1015.49
2018-01-28T00:12:13.392Z,1015.42
2018-01-28T00:13:13.416Z,1015.41
2018-01-28T00:14:13.417Z,1015.39
2018-01-28T00:15:13.430Z,1015.38
2018-01-28T00:16:13.455Z,1015.37
2018-01-28T00:17:13.466Z,1015.41
2018-01-28T00:18:13.478Z,1015.43
2018-01-28T00:19:13.492Z,1015.36
2018-01-28T00:20:13.504Z,1015.41
2018-01-28T00:21:13.516Z,1015.41
2018-01-28T00:22:13.519Z,1015.33
2018-01-28T00:23:13.543Z,1015.3
2018-01-28T00:24:13.554Z,1015.25
2018-01-28T00:25:13.567Z,1015.19
2018-01-28T00:26:13.581Z,1015.11
2018-01-28T00:27:13.583Z,1015.08
2018-01-28T00:28:13.595Z,1015.12
2018-01-28T00:29:13.620Z,1015.09
2018-01-28T00:30:13.632Z,1015.08
2018-01-28T00:31:13.638Z,1015.06
2018-01-28T00:32:13.656Z,1015.02
2018-01-28T00:33:13.670Z,1015.04
2018-01-28T00:34:13.673Z,1014.99
2018-01-28T00:35:13.697Z,1014.92
2018-01-28T00:36:13.708Z,1014.91
2018-01-28T00:37:13.723Z,1014.85
2018-01-28T00:38:13.735Z,1014.82
2018-01-28T00:39:13.737Z,1014.8
2018-01-28T00:40:13.760Z,1014.78
2018-01-28T00:41:13.774Z,1014.8
2018-01-28T00:42:13.775Z,1014.75
2018-01-28T00:43:13.790Z,1014.79
2018-01-28T00:44:13.801Z,1014.81
2018-01-28T00:45:13.825Z,1014.76
2018-01-28T00:46:13.826Z,1014.73
2018-01-28T00:47:13.989Z,1014.69
2018-01-28T00:48:13.862Z,1014.62
2018-01-28T00:49:13.874Z,1014.66
2018-01-28T00:50:13.879Z,1014.6
2018-01-28T00:51:13.900Z,1014.56
2018-01-28T00:52:13.964Z,1014.57
2018-01-28T00:53:13.915Z,1014.57
2018-01-28T00:54:13.939Z,1014.6
2018-01-28T00:55:13.953Z,1014.59
2018-01-28T00:56:13.954Z,1014.58
2018-01-28T00:57:13.966Z,1014.51
2018-01-28T00:58:13.979Z,1014.61
2018-01-28T00:59:14.003Z,1014.63
2018-01-28T01:00:14.007Z,1014.64
2018-01-28T01:01:14.030Z,1014.62
2018-01-28T01:02:14.180Z,1014.59
2018-01-28T01:03:14.057Z,1014.65
2018-01-28T01:04:14.066Z,1014.59
2018-01-28T01:05:14.068Z,1014.56
2018-01-28T01:06:14.081Z,1014.49
2018-01-28T01:07:14.094Z,1014.47
2018-01-28T01:08:14.106Z,1014.49
2018-01-28T01:09:14.119Z,1014.45
2018-01-28T01:10:14.136Z,1014.46
2018-01-28T01:11:14.147Z,1014.48
2018-01-28T01:12:14.207Z,1014.51
2018-01-28T01:13:14.170Z,1014.48
2018-01-28T01:14:14.183Z,1014.45
2018-01-28T01:15:14.205Z,1014.46
2018-01-28T01:16:14.212Z,1014.41
2018-01-28T01:17:14.221Z,1014.45
2018-01-28T01:18:14.234Z,1014.43
2018-01-28T01:19:14.250Z,1014.44
2018-01-28T01:20:14.272Z,1014.41
2018-01-28T01:21:14.289Z,1014.5
2018-01-28T01:22:14.294Z,1014.51
2018-01-28T01:23:14.297Z,1014.42
2018-01-28T01:24:14.310Z,1014.41
2018-01-28T01:25:14.324Z,1014.38
2018-01-28T01:26:14.335Z,1014.32
2018-01-28T01:27:14.351Z,1014.27
2018-01-28T01:28:14.360Z,1014.18
2018-01-28T01:29:14.385Z,1014.12
2018-01-28T01:30:14.398Z,1014.07
2018-01-28T01:31:14.410Z,1014.04
2018-01-28T01:32:14.424Z,1013.98
2018-01-28T01:33:14.436Z,1014
2018-01-28T01:34:14.447Z,1013.98
2018-01-28T01:35:14.450Z,1013.92
2018-01-28T01:36:14.475Z,1013.93
2018-01-28T01:37:15.497Z,1013.93
2018-01-28T01:38:14.488Z,1013.92
2018-01-28T01:39:14.501Z,1013.86
2018-01-28T01:40:14.525Z,1013.88
2018-01-28T01:41:14.527Z,1013.86
2018-01-28T01:42:14.551Z,1013.88
2018-01-28T01:43:14.587Z,1013.83
2018-01-28T01:44:14.577Z,1013.8
2018-01-28T01:45:14.588Z,1013.79
2018-01-28T01:46:14.600Z,1013.74
2018-01-28T01:47:14.639Z,1013.74
2018-01-28T01:48:14.625Z,1013.76
2018-01-28T01:49:14.628Z,1013.7
2018-01-28T01:50:14.641Z,1013.74
2018-01-28T01:51:14.653Z,1013.69
2018-01-28T01:52:14.678Z,1013.67
2018-01-28T01:53:14.690Z,1013.69
2018-01-28T01:54:14.693Z,1013.67
2018-01-28T01:55:14.704Z,1013.66
2018-01-28T01:56:14.717Z,1013.66
2018-01-28T01:57:14.731Z,1013.61
2018-01-28T01:58:14.744Z,1013.6
2018-01-28T01:59:14.757Z,1013.55
2018-01-28T02:00:14.768Z,1013.55
2018-01-28T02:01:14.780Z,1013.51
2018-01-28T02:02:14.805Z,1013.52
2018-01-28T02:03:14.805Z,1013.4
2018-01-28T02:04:14.829Z,1013.33
2018-01-28T02:05:14.866Z,1013.24
2018-01-28T02:06:14.844Z,1013.14
2018-01-28T02:07:14.859Z,1013.14
2018-01-28T02:08:14.882Z,1012.99
2018-01-28T02:09:14.894Z,1012.89
2018-01-28T02:10:14.895Z,1012.84
2018-01-28T02:11:14.919Z,1012.88
2018-01-28T02:12:14.933Z,1012.77
2018-01-28T02:13:14.935Z,1012.87
2018-01-28T02:14:14.948Z,1012.92
2018-01-28T02:15:14.972Z,1012.95
2018-01-28T02:16:14.987Z,1012.91
2018-01-28T02:17:14.985Z,1013.01
2018-01-28T02:18:15.010Z,1013.03
2018-01-28T02:19:15.022Z,1013.09
2018-01-28T02:20:15.025Z,1013.13
2018-01-28T02:21:15.036Z,1013.16
2018-01-28T02:22:15.060Z,1013.16
2018-01-28T02:23:15.072Z,1013.11
2018-01-28T02:24:15.087Z,1013.16
2018-01-28T02:25:15.098Z,1013.16
2018-01-28T02:26:15.100Z,1013.16
2018-01-28T02:27:15.114Z,1013.25
2018-01-28T02:28:15.126Z,1013.3
2018-01-28T02:29:15.149Z,1013.31
2018-01-28T02:30:15.165Z,1013.27
2018-01-28T02:31:15.177Z,1013.31
2018-01-28T02:32:15.191Z,1013.21
2018-01-28T02:33:15.203Z,1013.23
2018-01-28T02:34:15.203Z,1013.22
2018-01-28T02:35:15.225Z,1013.18
2018-01-28T02:36:15.240Z,1013.05
2018-01-28T02:37:15.241Z,1012.94
2018-01-28T02:38:15.255Z,1012.89
2018-01-28T02:39:15.266Z,1012.85
2018-01-28T02:40:15.348Z,1012.91
2018-01-28T02:41:15.292Z,1012.88
2018-01-28T02:42:15.316Z,1012.9
2018-01-28T02:43:15.318Z,1012.87
2018-01-28T02:44:15.330Z,1012.89
2018-01-28T02:45:15.343Z,1012.74
2018-01-28T02:46:15.366Z,1012.71
2018-01-28T02:47:15.369Z,1012.69
2018-01-28T02:48:15.393Z,1012.7
2018-01-28T02:49:15.405Z,1012.76
2018-01-28T02:50:15.408Z,1012.64
2018-01-28T02:51:15.430Z,1012.79
2018-01-28T02:52:15.445Z,1012.78
2018-01-28T02:53:15.457Z,1012.82
2018-01-28T02:54:15.462Z,1012.77
2018-01-28T02:55:15.470Z,1012.88
2018-01-28T02:56:15.497Z,1012.78
2018-01-28T02:57:15.496Z,1012.65
2018-01-28T02:58:15.509Z,1012.64
2018-01-28T02:59:15.534Z,1012.59
2018-01-28T03:00:15.537Z,1012.61
2018-01-28T03:01:15.558Z,1012.55
2018-01-28T03:02:15.574Z,1012.47
2018-01-28T03:03:15.574Z,1012.49
2018-01-28T03:04:15.597Z,1012.36
2018-01-28T03:05:15.610Z,1012.41
2018-01-28T03:06:15.625Z,1012.4
2018-01-28T03:07:15.626Z,1012.36
2018-01-28T03:08:15.636Z,1012.44
2018-01-28T03:09:15.659Z,1012.49
2018-01-28T03:10:15.663Z,1012.53
2018-01-28T03:11:15.686Z,1012.52
2018-01-28T03:12:15.698Z,1012.59
2018-01-28T03:13:15.700Z,1012.61
2018-01-28T03:14:15.715Z,1012.61
2018-01-28T03:15:15.726Z,1012.58
2018-01-28T03:16:15.749Z,1012.65
2018-01-28T03:17:15.759Z,1012.63
2018-01-28T03:18:15.783Z,1012.66
2018-01-28T03:19:15.790Z,1012.69
2018-01-28T03:20:15.790Z,1012.77
2018-01-28T03:21:15.814Z,1012.68
2018-01-28T03:22:15.816Z,1012.69
2018-01-28T03:23:15.839Z,1012.6
2018-01-28T03:24:15.841Z,1012.63
2018-01-28T03:25:15.855Z,1012.61
2018-01-28T03:26:15.889Z,1012.62
2018-01-28T03:27:15.904Z,1012.61
2018-01-28T03:28:15.899Z,1012.6
2018-01-28T03:29:15.918Z,1012.57
2018-01-28T03:30:15.920Z,1012.54
2018-01-28T03:31:16.144Z,1012.6
2018-01-28T03:32:15.944Z,1012.63
2018-01-28T03:33:15.971Z,1012.63
2018-01-28T03:34:15.971Z,1012.66
2018-01-28T03:35:15.981Z,1012.69
2018-01-28T03:36:15.995Z,1012.71
2018-01-28T03:37:16.018Z,1012.65
2018-01-28T03:38:16.030Z,1012.59
2018-01-28T03:39:16.036Z,1012.58
2018-01-28T03:40:16.045Z,1012.59
2018-01-28T03:41:16.068Z,1012.57
2018-01-28T03:42:16.073Z,1012.57
2018-01-28T03:43:16.095Z,1012.57
2018-01-28T03:44:16.097Z,1012.55
2018-01-28T03:45:16.109Z,1012.62
2018-01-28T03:46:16.133Z,1012.53
2018-01-28T03:47:16.135Z,1012.63
2018-01-28T03:48:16.159Z,1012.49
2018-01-28T03:49:16.161Z,1012.58
2018-01-28T03:50:16.185Z,1012.51
2018-01-28T03:51:16.191Z,1012.51
2018-01-28T03:52:16.199Z,1012.55
2018-01-28T03:53:16.222Z,1012.63
2018-01-28T03:54:16.237Z,1012.63
2018-01-28T03:55:16.249Z,1012.58
2018-01-28T03:56:16.250Z,1012.66
2018-01-28T03:57:16.274Z,1012.7
2018-01-28T03:58:16.289Z,1012.68
2018-01-28T03:59:16.301Z,1012.68
2018-01-28T04:00:16.301Z,1012.7
2018-01-28T04:01:16.325Z,1012.74
2018-01-28T04:02:16.328Z,1012.78
2018-01-28T04:03:16.340Z,1012.79
2018-01-28T04:04:16.353Z,1012.83
2018-01-28T04:05:16.376Z,1012.84
2018-01-28T04:06:16.390Z,1012.89
2018-01-28T04:07:16.400Z,1012.89
2018-01-28T04:08:16.414Z,1012.92
2018-01-28T04:09:16.427Z,1012.91
2018-01-28T04:10:16.428Z,1012.88
2018-01-28T04:11:16.456Z,1012.83
2018-01-28T04:12:16.455Z,1012.77
2018-01-28T04:13:16.478Z,1012.79
2018-01-28T04:14:16.492Z,1012.75
2018-01-28T04:15:16.503Z,1012.86
2018-01-28T04:16:16.516Z,1012.97
2018-01-28T04:17:16.519Z,1013.05
2018-01-28T04:18:16.532Z,1013.05
2018-01-28T04:19:16.543Z,1013.18
2018-01-28T04:20:16.568Z,1013.2
2018-01-28T04:21:16.571Z,1013.16
2018-01-28T04:22:16.584Z,1013.15
2018-01-28T04:23:16.595Z,1013.15
2018-01-28T04:24:16.608Z,1013.13
2018-01-28T04:25:16.630Z,1013.23
2018-01-28T04:26:16.633Z,1013.22
2018-01-28T04:27:16.646Z,1013.19
2018-01-28T04:28:16.672Z,1013.16
2018-01-28T04:29:16.671Z,1013.15
2018-01-28T04:30:16.686Z,1013.19
2018-01-28T04:31:16.697Z,1013.19
2018-01-28T04:32:16.720Z,1013.24
2018-01-28T04:33:16.733Z,1013.28
2018-01-28T04:34:16.736Z,1013.25
2018-01-28T04:35:16.749Z,1013.26
2018-01-28T04:36:16.762Z,1013.24
2018-01-28T04:37:16.778Z,1013.16
2018-01-28T04:38:16.787Z,1013.07
2018-01-28T04:39:16.800Z,1013.02
2018-01-28T04:40:16.814Z,1012.96
2018-01-28T04:41:16.836Z,1012.86
2018-01-28T04:42:16.850Z,1012.9
2018-01-28T04:43:16.851Z,1012.87
2018-01-28T04:44:16.864Z,1012.93
2018-01-28T04:45:16.876Z,1012.97
2018-01-28T04:46:16.901Z,1012.94
2018-01-28T04:47:16.902Z,1012.96
2018-01-28T04:48:16.916Z,1012.88
2018-01-28T04:49:16.939Z,1012.85
2018-01-28T04:50:16.953Z,1012.77
2018-01-28T04:51:16.964Z,1012.78
2018-01-28T04:52:16.966Z,1012.76
2018-01-28T04:53:16.979Z,1012.82
2018-01-28T04:54:17.004Z,1012.81
2018-01-28T04:55:17.015Z,1012.88
2018-01-28T04:56:17.017Z,1012.94
2018-01-28T04:57:17.041Z,1012.96
2018-01-28T04:58:17.054Z,1012.93
2018-01-28T04:59:17.067Z,1012.85
2018-01-28T05:00:17.081Z,1012.88
2018-01-28T05:01:17.082Z,1013.02
2018-01-28T05:02:17.108Z,1012.95
2018-01-28T05:03:17.108Z,1012.97
2018-01-28T05:04:17.121Z,1012.98
2018-01-28T05:05:17.143Z,1012.91
2018-01-28T05:06:17.145Z,1013.03
2018-01-28T05:07:17.159Z,1012.84
2018-01-28T05:08:17.173Z,1012.88
2018-01-28T05:09:17.185Z,1012.85
2018-01-28T05:10:17.198Z,1013
2018-01-28T05:11:17.220Z,1013.08
2018-01-28T05:12:17.224Z,1013.03
2018-01-28T05:13:17.236Z,1012.98
2018-01-28T05:14:17.259Z,1013.16
2018-01-28T05:15:17.262Z,1013.14
2018-01-28T05:16:17.285Z,1013.13
2018-01-28T05:17:17.287Z,1013.21
2018-01-28T05:18:17.310Z,1013.18
2018-01-28T05:19:17.324Z,1013.25
2018-01-28T05:20:17.344Z,1013.28
2018-01-28T05:21:17.342Z,1013.32
2018-01-28T05:22:17.364Z,1013.32
2018-01-28T05:23:17.375Z,1013.39
2018-01-28T05:24:17.538Z,1013.3
2018-01-28T05:25:17.404Z,1013.45
2018-01-28T05:26:17.405Z,1013.33
2018-01-28T05:27:17.418Z,1013.33
2018-01-28T05:28:17.430Z,1013.37
2018-01-28T05:29:17.443Z,1013.25
2018-01-28T05:30:17.467Z,1013.28
2018-01-28T05:31:17.479Z,1013.21
2018-01-28T05:32:17.482Z,1013.26
2018-01-28T05:33:17.495Z,1013.25
2018-01-28T05:34:17.570Z,1013.25
2018-01-28T05:35:17.530Z,1013.27
2018-01-28T05:36:17.534Z,1013.32
2018-01-28T05:37:17.548Z,1013.32
2018-01-28T05:38:17.558Z,1013.37
2018-01-28T05:39:17.577Z,1013.33
2018-01-28T05:40:17.586Z,1013.41
2018-01-28T05:41:17.609Z,1013.5
2018-01-28T05:42:17.621Z,1013.55
2018-01-28T05:43:17.623Z,1013.54
2018-01-28T05:44:17.637Z,1013.55
2018-01-28T05:45:17.659Z,1013.61
2018-01-28T05:46:17.664Z,1013.59
2018-01-28T05:47:17.686Z,1013.63
2018-01-28T05:48:17.689Z,1013.66
2018-01-28T05:49:17.701Z,1013.62
2018-01-28T05:50:17.726Z,1013.63
2018-01-28T05:51:17.730Z,1013.61
2018-01-28T05:52:17.742Z,1013.62
2018-01-28T05:53:17.764Z,1013.67
2018-01-28T05:54:17.765Z,1013.66
2018-01-28T05:55:17.782Z,1013.63
2018-01-28T05:56:17.791Z,1013.65
2018-01-28T05:57:17.814Z,1013.7
2018-01-28T05:58:17.828Z,1013.77
2018-01-28T05:59:17.841Z,1013.72
2018-01-28T06:00:17.856Z,1013.8
2018-01-28T06:01:17.856Z,1013.76
2018-01-28T06:02:17.878Z,1013.75
2018-01-28T06:03:17.894Z,1013.73
2018-01-28T06:04:17.905Z,1013.83
2018-01-28T06:05:17.942Z,1013.88
2018-01-28T06:06:17.932Z,1013.85
2018-01-28T06:07:17.944Z,1013.81
2018-01-28T06:08:17.958Z,1013.87
2018-01-28T06:09:17.960Z,1013.91
2018-01-28T06:10:17.974Z,1013.84
2018-01-28T06:11:17.991Z,1013.87
2018-01-28T06:12:17.999Z,1013.93
2018-01-28T06:13:18.023Z,1013.9
2018-01-28T06:14:18.151Z,1013.95
2018-01-28T06:15:18.053Z,1013.94
2018-01-28T06:16:18.051Z,1014
2018-01-28T06:17:18.064Z,1013.92
2018-01-28T06:18:18.087Z,1013.98
2018-01-28T06:19:18.091Z,1013.95
2018-01-28T06:20:18.104Z,1013.91
2018-01-28T06:21:18.126Z,1013.87
2018-01-28T06:22:18.139Z,1013.93
2018-01-28T06:23:18.141Z,1013.96
2018-01-28T06:24:18.155Z,1013.93
2018-01-28T06:25:18.181Z,1013.94
2018-01-28T06:26:18.180Z,1013.91
2018-01-28T06:27:18.193Z,1013.96
2018-01-28T06:28:18.207Z,1013.97
2018-01-28T06:29:18.230Z,1013.88
2018-01-28T06:30:18.243Z,1013.98
2018-01-28T06:31:18.252Z,1013.97
2018-01-28T06:32:18.269Z,1013.9
2018-01-28T06:33:18.271Z,1013.97
2018-01-28T06:34:18.284Z,1013.96
2018-01-28T06:35:18.357Z,1013.97
2018-01-28T06:36:18.311Z,1013.99
2018-01-28T06:37:18.334Z,1013.98
2018-01-28T06:38:18.348Z,1014.02
2018-01-28T06:39:18.352Z,1013.93
2018-01-28T06:40:18.362Z,1013.95
2018-01-28T06:41:18.375Z,1014.07
2018-01-28T06:42:18.388Z,1014.01
2018-01-28T06:43:18.401Z,1014.09
2018-01-28T06:44:18.418Z,1014.06
2018-01-28T06:45:18.427Z,1014.08
2018-01-28T06:46:18.451Z,1014.13
2018-01-28T06:47:18.465Z,1014.14
2018-01-28T06:48:18.477Z,1014.15
2018-01-28T06:49:18.489Z,1014.21
2018-01-28T06:50:18.495Z,1014.21
2018-01-28T06:51:18.604Z,1014.28
2018-01-28T06:52:18.523Z,1014.36
2018-01-28T06:53:18.531Z,1014.37
2018-01-28T06:54:18.560Z,1014.42
2018-01-28T06:55:18.557Z,1014.45
2018-01-28T06:56:18.574Z,1014.46
2018-01-28T06:57:18.584Z,1014.47
2018-01-28T06:58:18.598Z,1014.58
2018-01-28T06:59:18.621Z,1014.63
2018-01-28T07:00:18.674Z,1014.66
2018-01-28T07:01:18.638Z,1014.63
2018-01-28T07:02:18.660Z,1014.61
2018-01-28T07:03:18.663Z,1014.59
2018-01-28T07:04:18.686Z,1014.56
2018-01-28T07:05:18.699Z,1014.55
2018-01-28T07:06:18.711Z,1014.53
2018-01-28T07:07:18.714Z,1014.59
2018-01-28T07:08:18.737Z,1014.56
2018-01-28T07:09:18.739Z,1014.59
2018-01-28T07:10:18.822Z,1014.57
2018-01-28T07:11:18.778Z,1014.5
2018-01-28T07:12:18.780Z,1014.6
2018-01-28T07:13:18.803Z,1014.58
2018-01-28T07:14:18.815Z,1014.62
2018-01-28T07:15:18.829Z,1014.65
2018-01-28T07:16:18.832Z,1014.65
2018-01-28T07:17:18.843Z,1014.69
2018-01-28T07:18:18.859Z,1014.75
2018-01-28T07:19:18.874Z,1014.75
2018-01-28T07:20:18.894Z,1014.76
2018-01-28T07:21:18.907Z,1014.91
2018-01-28T07:22:18.910Z,1014.86
2018-01-28T07:23:18.934Z,1015.04
2018-01-28T07:24:18.935Z,1014.96
2018-01-28T07:25:18.949Z,1015
2018-01-28T07:26:18.961Z,1015.03
2018-01-28T07:27:18.979Z,1015.05
2018-01-28T07:28:18.998Z,1015.03
2018-01-28T07:29:19.004Z,1015.1
2018-01-28T07:30:19.026Z,1015.08
2018-01-28T07:31:19.027Z,1015.12
2018-01-28T07:32:19.040Z,1015.11
2018-01-28T07:33:19.053Z,1015.15
2018-01-28T07:34:19.066Z,1015.03
2018-01-28T07:35:19.078Z,1015.01
2018-01-28T07:36:19.094Z,1015.07
2018-01-28T07:37:19.105Z,1015.08
2018-01-28T07:38:19.120Z,1015.05
2018-01-28T07:39:19.132Z,1015.08
2018-01-28T07:40:19.146Z,1015.08
2018-01-28T07:41:19.158Z,1015.09
2018-01-28T07:42:19.181Z,1015.07
2018-01-28T07:43:19.185Z,1015
2018-01-28T07:44:19.205Z,1015
2018-01-28T07:45:19.220Z,1015.05
2018-01-28T07:46:19.223Z,1015.04
2018-01-28T07:47:19.247Z,1015.07
2018-01-28T07:48:19.249Z,1015.08
2018-01-28T07:49:19.262Z,1015.06
2018-01-28T07:50:19.285Z,1015.1
2018-01-28T07:51:19.290Z,1015.04
2018-01-28T07:52:19.302Z,1015.1
2018-01-28T07:53:19.318Z,1015.12
2018-01-28T07:54:19.338Z,1015.1
2018-01-28T07:55:19.345Z,1015.11
2018-01-28T07:56:19.365Z,1015.09
2018-01-28T07:57:19.378Z,1015.14
2018-01-28T07:58:19.386Z,1015.12
2018-01-28T07:59:19.404Z,1015.2
2018-01-28T08:00:19.407Z,1015.16
2018-01-28T08:01:19.433Z,1015.24
2018-01-28T08:02:19.444Z,1015.22
2018-01-28T08:03:19.457Z,1015.27
2018-01-28T08:04:19.470Z,1015.3
2018-01-28T08:05:19.483Z,1015.24
2018-01-28T08:06:19.496Z,1015.36
2018-01-28T08:07:19.510Z,1015.24
2018-01-28T08:08:19.512Z,1015.21
2018-01-28T08:09:19.536Z,1015.23
2018-01-28T08:10:19.550Z,1015.27
2018-01-28T08:11:19.566Z,1015.3
2018-01-28T08:12:19.575Z,1015.33
2018-01-28T08:13:19.590Z,1015.31
2018-01-28T08:14:19.593Z,1015.3
2018-01-28T08:15:19.615Z,1015.3
2018-01-28T08:16:19.628Z,1015.29
2018-01-28T08:17:19.631Z,1015.31
2018-01-28T08:18:19.655Z,1015.33
2018-01-28T08:19:19.669Z,1015.3
2018-01-28T08:20:19.682Z,1015.26
2018-01-28T08:21:19.695Z,1015.24
2018-01-28T08:22:19.708Z,1015.28
2018-01-28T08:23:19.721Z,1015.27
2018-01-28T08:24:19.757Z,1015.31
2018-01-28T08:25:19.738Z,1015.34
2018-01-28T08:26:19.750Z,1015.29
2018-01-28T08:27:19.763Z,1015.32
2018-01-28T08:28:19.787Z,1015.39
2018-01-28T08:29:19.802Z,1015.34
2018-01-28T08:30:19.806Z,1015.38
2018-01-28T08:31:19.827Z,1015.36
2018-01-28T08:32:19.830Z,1015.39
2018-01-28T08:33:19.890Z,1015.39
2018-01-28T08:34:19.871Z,1015.4
2018-01-28T08:35:19.870Z,1015.36
2018-01-28T08:36:19.885Z,1015.34
2018-01-28T08:37:19.910Z,1015.31
2018-01-28T08:38:19.924Z,1015.34
2018-01-28T08:39:19.935Z,1015.33
2018-01-28T08:40:19.949Z,1015.32
2018-01-28T08:41:19.952Z,1015.37
2018-01-28T08:42:19.975Z,1015.38
2018-01-28T08:43:19.989Z,1015.44
2018-01-28T08:44:20.002Z,1015.44
2018-01-28T08:45:20.015Z,1015.52
2018-01-28T08:46:20.030Z,1015.5
2018-01-28T08:47:20.043Z,1015.49
2018-01-28T08:48:20.058Z,1015.52
2018-01-28T08:49:20.069Z,1015.55
2018-01-28T08:50:20.073Z,1015.58
2018-01-28T08:51:20.086Z,1015.52
2018-01-28T08:52:20.111Z,1015.57
2018-01-28T08:53:20.112Z,1015.66
2018-01-28T08:54:20.127Z,1015.72
2018-01-28T08:55:20.148Z,1015.73
2018-01-28T08:56:20.155Z,1015.74
2018-01-28T08:57:20.177Z,1015.68
2018-01-28T08:58:20.180Z,1015.74
2018-01-28T08:59:20.219Z,1015.75
2018-01-28T09:00:20.207Z,1015.75
2018-01-28T09:01:20.221Z,1015.77
2018-01-28T09:02:20.235Z,1015.79
2018-01-28T09:03:20.258Z,1015.81
2018-01-28T09:04:20.260Z,1015.77
2018-01-28T09:05:20.275Z,1015.72
2018-01-28T09:06:20.288Z,1015.68
2018-01-28T09:07:20.303Z,1015.71
2018-01-28T09:08:20.335Z,1015.7
2018-01-28T09:09:20.340Z,1015.7
2018-01-28T09:10:20.342Z,1015.68
2018-01-28T09:11:20.356Z,1015.67
2018-01-28T09:12:20.381Z,1015.62
2018-01-28T09:13:20.385Z,1015.57
2018-01-28T09:14:20.408Z,1015.56
2018-01-28T09:15:20.422Z,1015.56
2018-01-28T09:16:20.436Z,1015.58
2018-01-28T09:17:20.438Z,1015.45
2018-01-28T09:18:20.453Z,1015.57
2018-01-28T09:19:20.477Z,1015.62
2018-01-28T09:20:20.493Z,1015.6
2018-01-28T09:21:20.495Z,1015.59
2018-01-28T09:22:20.507Z,1015.5
2018-01-28T09:23:20.532Z,1015.61
2018-01-28T09:24:20.536Z,1015.62
2018-01-28T09:25:20.559Z,1015.67
2018-01-28T09:26:20.574Z,1015.68
2018-01-28T09:27:20.576Z,1015.68
2018-01-28T09:28:20.606Z,1015.67
2018-01-28T09:29:20.604Z,1015.7
2018-01-28T09:30:20.619Z,1015.72
2018-01-28T09:31:20.643Z,1015.77
2018-01-28T09:32:20.656Z,1015.73
2018-01-28T09:33:20.660Z,1015.66
2018-01-28T09:34:20.686Z,1015.65
2018-01-28T09:35:20.699Z,1015.7
2018-01-28T09:36:20.702Z,1015.67
2018-01-28T09:37:20.717Z,1015.72
2018-01-28T09:38:20.729Z,1015.74
2018-01-28T09:39:20.754Z,1015.79
2018-01-28T09:40:20.757Z,1015.7
2018-01-28T09:41:20.782Z,1015.68
2018-01-28T09:42:20.796Z,1015.67
2018-01-28T09:43:20.799Z,1015.68
2018-01-28T09:44:20.825Z,1015.84
2018-01-28T09:45:20.838Z,1015.76
2018-01-28T09:46:20.852Z,1015.75
2018-01-28T09:47:20.855Z,1015.74
2018-01-28T09:48:20.882Z,1015.82
2018-01-28T09:49:20.884Z,1015.66
2018-01-28T09:50:20.913Z,1015.62
2018-01-28T09:51:20.922Z,1015.7
2018-01-28T09:52:20.928Z,1015.63
2018-01-28T09:53:20.954Z,1015.56
2018-01-28T09:54:20.965Z,1015.61
2018-01-28T09:55:20.979Z,1015.56
2018-01-28T09:56:20.984Z,1015.57
2018-01-28T09:57:21.008Z,1015.56
2018-01-28T09:58:21.012Z,1015.57
2018-01-28T09:59:21.033Z,1015.59
2018-01-28T10:00:21.050Z,1015.7
2018-01-28T10:01:21.053Z,1015.75
2018-01-28T10:02:21.078Z,1015.7
2018-01-28T10:03:21.082Z,1015.76
2018-01-28T10:04:21.096Z,1015.84
2018-01-28T10:05:21.120Z,1015.74
2018-01-28T10:06:21.124Z,1015.79
2018-01-28T10:07:21.141Z,1015.74
2018-01-28T10:08:21.154Z,1015.72
2018-01-28T10:09:21.167Z,1015.67
2018-01-28T10:10:21.183Z,1015.63
2018-01-28T10:11:21.207Z,1015.65
2018-01-28T10:12:21.210Z,1015.59
2018-01-28T10:13:21.237Z,1015.59
2018-01-28T10:14:21.240Z,1015.64
2018-01-28T10:15:21.254Z,1015.7
2018-01-28T10:16:21.268Z,1015.67
2018-01-28T10:17:21.283Z,1015.73
2018-01-28T10:18:21.299Z,1015.71
2018-01-28T10:19:21.322Z,1015.68
2018-01-28T10:20:21.336Z,1015.72
2018-01-28T10:21:21.343Z,1015.76
2018-01-28T10:22:21.401Z,1015.78
2018-01-28T10:23:21.382Z,1015.81
2018-01-28T10:24:21.394Z,1015.72
2018-01-28T10:25:21.409Z,1015.72
2018-01-28T10:26:21.425Z,1015.75
2018-01-28T10:27:21.428Z,1015.8
2018-01-28T10:28:21.442Z,1015.84
2018-01-28T10:29:21.468Z,1015.75
2018-01-28T10:30:21.482Z,1015.84
2018-01-28T10:31:21.486Z,1015.82
2018-01-28T10:32:21.511Z,1015.81
2018-01-28T10:33:21.530Z,1015.86
2018-01-28T10:34:21.539Z,1015.91
2018-01-28T10:35:21.543Z,1015.84
2018-01-28T10:36:21.571Z,1015.83
2018-01-28T10:37:21.573Z,1015.8
2018-01-28T10:38:21.586Z,1015.73
2018-01-28T10:39:21.601Z,1015.75
2018-01-28T10:40:21.630Z,1015.71
2018-01-28T10:41:21.631Z,1015.72
2018-01-28T10:42:21.645Z,1015.66
2018-01-28T10:43:21.670Z,1015.7
2018-01-28T10:44:21.685Z,1015.8
2018-01-28T10:45:21.699Z,1015.81
2018-01-28T10:46:21.704Z,1015.86
2018-01-28T10:47:21.729Z,1015.77
2018-01-28T10:48:21.733Z,1015.89
2018-01-28T10:49:21.746Z,1015.92
2018-01-28T10:50:21.773Z,1015.92
2018-01-28T10:51:21.787Z,1015.95
2018-01-28T10:52:21.803Z,1015.88
2018-01-28T10:53:21.819Z,1015.89
2018-01-28T10:54:21.822Z,1015.82
2018-01-28T10:55:21.837Z,1015.89
2018-01-28T10:56:21.897Z,1015.87
2018-01-28T10:57:21.874Z,1015.84
2018-01-28T10:58:21.879Z,1015.87
2018-01-28T10:59:21.905Z,1015.89
2018-01-28T11:00:21.918Z,1015.92
2018-01-28T11:01:21.934Z,1016.01
2018-01-28T11:02:21.948Z,1015.95
2018-01-28T11:03:21.963Z,1015.96
2018-01-28T11:04:21.968Z,1015.97
2018-01-28T11:05:21.993Z,1015.95
2018-01-28T11:06:22.009Z,1015.86
2018-01-28T11:07:22.010Z,1015.86
2018-01-28T11:08:22.025Z,1015.82
2018-01-28T11:09:22.050Z,1015.91
2018-01-28T11:10:22.091Z,1015.88
2018-01-28T11:11:22.081Z,1015.91
2018-01-28T11:12:22.084Z,1015.92
2018-01-28T11:13:22.110Z,1015.88
2018-01-28T11:14:22.112Z,1015.86
2018-01-28T11:15:22.127Z,1015.82
2018-01-28T11:16:22.154Z,1015.82
2018-01-28T11:17:22.157Z,1015.89
2018-01-28T11:18:22.182Z,1015.84
2018-01-28T11:19:22.196Z,1015.81
2018-01-28T11:20:22.203Z,1015.82
2018-01-28T11:21:22.226Z,1015.85
2018-01-28T11:22:22.229Z,1015.88
2018-01-28T11:23:22.244Z,1015.83
2018-01-28T11:24:22.271Z,1015.85
2018-01-28T11:25:22.285Z,1015.8
2018-01-28T11:26:22.299Z,1015.86
2018-01-28T11:27:22.314Z,1015.94
2018-01-28T11:28:22.329Z,1015.93
2018-01-28T11:29:22.344Z,1015.87
2018-01-28T11:30:22.346Z,1015.94
2018-01-28T11:31:22.377Z,1015.88
2018-01-28T11:32:22.377Z,1015.89
2018-01-28T11:33:22.400Z,1015.87
2018-01-28T11:34:22.421Z,1015.9
2018-01-28T11:35:22.423Z,1015.88
2018-01-28T11:36:22.434Z,1015.94
2018-01-28T11:37:22.565Z,1015.9
2018-01-28T11:38:22.467Z,1015.98
2018-01-28T11:39:22.481Z,1015.95
2018-01-28T11:40:22.503Z,1015.9
2018-01-28T11:41:22.507Z,1015.89
2018-01-28T11:42:22.523Z,1015.91
2018-01-28T11:43:22.549Z,1015.9
2018-01-28T11:44:22.552Z,1015.89
2018-01-28T11:45:22.567Z,1015.84
2018-01-28T11:46:22.592Z,1015.9
2018-01-28T11:47:22.606Z,1015.91
2018-01-28T11:48:22.621Z,1015.92
2018-01-28T11:49:22.638Z,1015.96
2018-01-28T11:50:22.643Z,1015.97
2018-01-28T11:51:22.669Z,1016.03
2018-01-28T11:52:22.670Z,1015.97
2018-01-28T11:53:22.684Z,1015.98
2018-01-28T11:54:22.708Z,1015.95
2018-01-28T11:55:22.713Z,1015.93
2018-01-28T11:56:22.741Z,1015.86
2018-01-28T11:57:22.743Z,1015.86
2018-01-28T11:58:22.767Z,1015.88
2018-01-28T11:59:22.773Z,1015.91
2018-01-28T12:00:22.787Z,1015.95
2018-01-28T12:01:22.812Z,1015.98
2018-01-28T12:02:22.819Z,1015.97
2018-01-28T12:03:22.841Z,1016.03
2018-01-28T12:04:22.854Z,1015.85
2018-01-28T12:05:22.868Z,1015.9
2018-01-28T12:06:22.886Z,1015.83
2018-01-28T12:07:22.891Z,1015.81
2018-01-28T12:08:22.913Z,1015.8